Time;durP1;ratioP1;P1;durP2;ratioP2;P2;SDS_P1;SDS_P2;PMS_P1;PMS_P2;Temp;Humidity;BMP_temperature;BMP_pressure;BME280_temperature;BME280_humidity;BME280_pressure;Samples;Min_cycle;Max_cycle;Signal;HPM_P1;HPM_P2
2021/03/23 00:01:25;;;;;;;20.70;14.02;;;7.70;75.60;;;;;;5060390;28;20028;-76
2021/03/23 00:03:51;;;;;;;19.42;13.00;;;7.70;75.50;;;;;;5060601;28;20025;-78
2021/03/23 00:06:20;;;;;;;16.33;10.80;;;7.70;76.00;;;;;;5056859;28;20044;-78
2021/03/23 00:08:48;;;;;;;16.40;11.25;;;7.70;75.90;;;;;;5066644;28;20064;-77
2021/03/23 00:11:25;;;;;;;16.95;11.60;;;7.60;75.40;;;;;;5076920;28;20017;-79
2021/03/23 00:13:52;;;;;;;15.23;10.65;;;7.60;75.50;;;;;;5077469;28;20025;-78
2021/03/23 00:16:22;;;;;;;15.65;11.00;;;7.60;75.40;;;;;;5064744;28;20441;-79
2021/03/23 00:18:48;;;;;;;16.70;10.63;;;7.60;75.20;;;;;;5059427;28;20028;-79
2021/03/23 00:21:15;;;;;;;20.75;10.77;;;7.60;75.50;;;;;;5056911;28;20017;-80
2021/03/23 00:23:41;;;;;;;13.63;9.93;;;7.60;75.30;;;;;;5055800;28;20365;-80
2021/03/23 00:26:09;;;;;;;17.85;9.95;;;7.60;75.30;;;;;;5055643;28;20442;-79
2021/03/23 00:28:35;;;;;;;16.45;10.38;;;7.60;75.20;;;;;;5055866;28;20070;-79
2021/03/23 00:31:01;;;;;;;19.90;11.48;;;7.60;75.20;;;;;;5055631;28;20012;-79
2021/03/23 00:33:26;;;;;;;13.65;9.80;;;7.50;75.50;;;;;;5055582;28;20494;-79
2021/03/23 00:35:56;;;;;;;16.50;10.15;;;7.60;75.20;;;;;;5088917;28;20023;-78
2021/03/23 00:38:22;;;;;;;17.00;9.63;;;7.60;74.80;;;;;;5055656;28;20533;-78
2021/03/23 00:40:49;;;;;;;14.63;9.52;;;7.60;74.50;;;;;;5089089;28;20108;-78
2021/03/23 00:43:15;;;;;;;19.25;10.10;;;7.60;75.20;;;;;;5054671;28;20048;-80
2021/03/23 00:45:42;;;;;;;16.23;9.93;;;7.50;74.50;;;;;;5055503;28;20412;-79
2021/03/23 00:48:10;;;;;;;14.00;9.10;;;7.50;74.30;;;;;;5055160;28;20449;-78
2021/03/23 00:50:36;;;;;;;17.35;10.13;;;7.50;74.30;;;;;;5055203;28;20024;-79
2021/03/23 00:53:06;;;;;;;16.48;9.98;;;7.50;74.10;;;;;;5055075;28;20027;-80
2021/03/23 00:55:51;;;;;;;14.32;9.73;;;7.50;74.60;;;;;;5072138;28;20021;-79
2021/03/23 00:58:17;;;;;;;17.35;10.95;;;7.60;74.60;;;;;;5055300;28;20024;-78
2021/03/23 01:00:43;;;;;;;18.48;9.23;;;7.50;74.80;;;;;;5055162;28;20351;-79
2021/03/23 01:03:08;;;;;;;15.27;9.48;;;7.50;75.00;;;;;;5088519;28;20021;-79
2021/03/23 01:05:35;;;;;;;17.15;10.07;;;7.50;75.10;;;;;;5089305;28;20043;-78
2021/03/23 01:08:01;;;;;;;17.05;9.98;;;7.50;75.20;;;;;;5054917;28;20041;-79
2021/03/23 01:10:29;;;;;;;15.05;10.27;;;7.50;74.80;;;;;;5072847;28;20021;-78
2021/03/23 01:12:55;;;;;;;18.17;10.30;;;7.50;74.80;;;;;;5072879;28;20035;-79
2021/03/23 01:15:31;;;;;;;17.77;9.68;;;7.50;75.70;;;;;;5072901;28;20024;-79
2021/03/23 01:17:58;;;;;;;14.52;10.43;;;7.50;75.80;;;;;;5072314;28;20012;-79
2021/03/23 01:20:26;;;;;;;16.02;10.85;;;7.50;75.30;;;;;;5072775;28;20024;-78
2021/03/23 01:22:51;;;;;;;14.65;9.73;;;7.50;75.40;;;;;;5072775;28;20024;-79
2021/03/23 01:25:18;;;;;;;18.80;11.93;;;7.50;75.30;;;;;;5054739;28;20065;-79
2021/03/23 01:27:44;;;;;;;16.33;11.23;;;7.50;75.30;;;;;;5054704;28;20111;-78
2021/03/23 01:30:11;;;;;;;14.98;10.15;;;7.50;75.10;;;;;;5054531;28;20454;-78
2021/03/23 01:32:37;;;;;;;17.17;10.73;;;7.40;75.40;;;;;;5054598;28;20081;-78
2021/03/23 01:35:04;;;;;;;17.42;10.93;;;7.50;75.60;;;;;;5072323;28;20024;-79
2021/03/23 01:37:29;;;;;;;17.77;10.32;;;7.40;75.60;;;;;;5054469;28;20021;-79
2021/03/23 01:39:55;;;;;;;17.13;9.77;;;7.40;75.80;;;;;;5072298;28;20032;-79
2021/03/23 01:42:21;;;;;;;15.88;10.10;;;7.40;75.60;;;;;;5087981;28;20468;-79
2021/03/23 01:45:13;;;;;;;14.90;10.52;;;7.40;75.60;;;;;;5054545;28;20109;-78
2021/03/23 01:47:38;;;;;;;16.40;10.63;;;7.30;75.60;;;;;;5054465;28;20074;-78
2021/03/23 01:50:04;;;;;;;17.05;10.43;;;7.30;75.80;;;;;;5072016;28;20024;-80
2021/03/23 01:52:30;;;;;;;15.55;10.50;;;7.30;75.60;;;;;;5054604;28;20016;-79
2021/03/23 01:55:01;;;;;;;19.13;11.38;;;7.30;75.50;;;;;;5072105;28;20325;-78
2021/03/23 01:57:28;;;;;;;20.75;10.63;;;7.30;75.80;;;;;;5054280;28;20457;-78
2021/03/23 01:59:57;;;;;;;17.83;10.23;;;7.30;75.50;;;;;;5071888;28;20032;-79
2021/03/23 02:02:25;;;;;;;19.77;11.30;;;7.30;75.40;;;;;;5054359;28;20067;-78
2021/03/23 02:04:52;;;;;;;15.10;9.60;;;7.30;75.50;;;;;;5053970;28;20019;-77
2021/03/23 02:07:18;;;;;;;18.48;10.40;;;7.30;76.30;;;;;;5054248;28;20028;-78
2021/03/23 02:09:43;;;;;;;19.90;11.38;;;7.30;75.80;;;;;;5072202;28;20044;-79
2021/03/23 02:12:17;;;;;;;15.20;10.18;;;7.30;75.70;;;;;;5054065;28;20013;-79
2021/03/23 02:14:47;;;;;;;14.88;10.18;;;7.30;75.90;;;;;;5054007;28;20453;-79
2021/03/23 02:17:25;;;;;;;16.95;10.02;;;7.30;75.90;;;;;;5054242;28;20012;-79
2021/03/23 02:19:59;;;;;;;15.02;9.90;;;7.30;75.80;;;;;;5072049;28;20043;-79
2021/03/23 02:22:37;;;;;;;18.90;9.93;;;7.20;75.80;;;;;;5071671;28;20032;-78
2021/03/23 02:25:07;;;;;;;19.73;10.95;;;7.30;76.10;;;;;;5071926;28;20066;-79
2021/03/23 02:27:33;;;;;;;20.42;11.27;;;7.20;76.10;;;;;;5053755;28;20153;-78
2021/03/23 02:30:01;;;;;;;15.57;9.90;;;7.30;76.30;;;;;;5053863;28;20115;-79
2021/03/23 02:32:27;;;;;;;17.90;11.80;;;7.30;76.30;;;;;;5054132;28;20013;-78
2021/03/23 02:34:52;;;;;;;19.42;12.43;;;7.30;76.20;;;;;;5053776;28;20024;-79
2021/03/23 02:37:19;;;;;;;18.20;11.40;;;7.20;76.40;;;;;;5053992;28;20305;-78
2021/03/23 02:39:45;;;;;;;23.75;13.10;;;7.20;76.50;;;;;;5053891;28;20021;-78
2021/03/23 02:42:11;;;;;;;22.08;12.95;;;7.20;76.70;;;;;;5053710;28;20027;-79
2021/03/23 02:44:39;;;;;;;21.83;14.52;;;7.20;76.90;;;;;;5071987;28;20020;-79
2021/03/23 02:47:05;;;;;;;21.17;12.52;;;7.20;77.70;;;;;;5054077;28;20029;-78
2021/03/23 02:49:31;;;;;;;22.33;14.40;;;7.10;77.20;;;;;;5073099;28;20024;-79
2021/03/23 02:51:56;;;;;;;19.02;13.27;;;7.10;77.60;;;;;;5076917;28;20024;-79
2021/03/23 02:54:22;;;;;;;23.17;14.40;;;7.10;77.70;;;;;;5079533;28;20453;-78
2021/03/23 02:56:47;;;;;;;22.10;14.35;;;7.10;77.60;;;;;;5055370;28;20052;-78
2021/03/23 02:59:13;;;;;;;22.67;15.13;;;7.10;77.90;;;;;;5071426;28;20024;-79
2021/03/23 03:01:38;;;;;;;21.75;14.85;;;7.10;78.00;;;;;;5071810;28;20020;-79
2021/03/23 03:04:05;;;;;;;24.27;15.13;;;7.10;78.10;;;;;;5073615;28;20028;-79
2021/03/23 03:06:30;;;;;;;23.23;15.13;;;7.10;78.10;;;;;;5077384;28;20120;-79
2021/03/23 03:08:56;;;;;;;21.25;15.90;;;7.20;78.10;;;;;;5060294;28;20091;-78
2021/03/23 03:11:22;;;;;;;26.30;17.05;;;7.20;78.20;;;;;;5076506;28;20020;-80
2021/03/23 03:13:48;;;;;;;25.33;15.57;;;7.20;78.20;;;;;;5057237;28;20099;-80
2021/03/23 03:16:13;;;;;;;23.77;15.98;;;7.20;78.20;;;;;;5058650;28;20059;-80
2021/03/23 03:18:39;;;;;;;25.33;15.98;;;7.20;78.20;;;;;;5057566;28;20073;-80
2021/03/23 03:21:04;;;;;;;26.00;16.10;;;7.20;78.20;;;;;;5056966;28;20016;-79
2021/03/23 03:23:30;;;;;;;24.98;16.77;;;7.20;78.10;;;;;;5056921;28;20104;-79
2021/03/23 03:25:57;;;;;;;26.83;16.50;;;7.20;78.20;;;;;;5075093;28;20039;-78
2021/03/23 03:28:22;;;;;;;31.55;19.05;;;7.20;78.40;;;;;;5075245;28;20103;-78
2021/03/23 03:30:48;;;;;;;25.23;16.83;;;7.20;78.20;;;;;;5056974;28;20111;-79
2021/03/23 03:33:17;;;;;;;28.25;17.65;;;7.30;78.10;;;;;;5074646;28;20016;-78
2021/03/23 03:35:45;;;;;;;26.30;16.42;;;7.30;78.10;;;;;;5056828;28;20066;-78
2021/03/23 03:38:11;;;;;;;28.65;18.17;;;7.30;78.00;;;;;;5056431;28;20016;-78
2021/03/23 03:40:45;;;;;;;32.50;19.67;;;7.20;77.70;;;;;;5056769;28;20016;-78
2021/03/23 03:43:12;;;;;;;32.28;20.75;;;7.30;77.50;;;;;;5056644;28;20021;-78
2021/03/23 03:45:38;;;;;;;34.03;20.88;;;7.20;77.40;;;;;;5074351;28;20024;-79
2021/03/23 03:48:05;;;;;;;35.20;20.08;;;7.20;77.50;;;;;;5056022;28;20019;-79
2021/03/23 03:50:30;;;;;;;32.50;21.48;;;7.20;77.70;;;;;;5074585;28;20012;-79
2021/03/23 03:52:57;;;;;;;31.13;20.35;;;7.20;77.80;;;;;;5056395;28;20029;-79
2021/03/23 03:55:29;;;;;;;30.38;19.90;;;7.20;77.60;;;;;;5056760;28;20020;-78
2021/03/23 03:57:54;;;;;;;34.70;22.35;;;7.20;77.70;;;;;;5077410;28;20024;-78
2021/03/23 04:00:22;;;;;;;35.22;21.23;;;7.20;77.70;;;;;;5056190;28;20073;-80
2021/03/23 04:02:48;;;;;;;33.42;22.27;;;7.20;77.70;;;;;;5074227;28;20028;-79
2021/03/23 04:05:38;;;;;;;38.38;22.50;;;7.20;77.60;;;;;;5073781;28;20317;-80
2021/03/23 04:08:06;;;;;;;44.13;23.13;;;7.20;77.40;;;;;;5073746;28;20059;-79
2021/03/23 04:10:32;;;;;;;34.67;22.77;;;7.20;77.40;;;;;;5056132;28;20028;-78
2021/03/23 04:12:58;;;;;;;32.25;23.05;;;7.20;77.40;;;;;;5056330;28;20025;-80
2021/03/23 04:15:28;;;;;;;39.17;22.17;;;7.20;77.30;;;;;;5056148;28;20453;-78
2021/03/23 04:17:54;;;;;;;35.55;23.98;;;7.20;77.40;;;;;;5074452;28;20016;-79
2021/03/23 04:20:22;;;;;;;39.97;24.83;;;7.20;77.70;;;;;;5055716;28;20453;-79
2021/03/23 04:22:48;;;;;;;35.40;23.70;;;7.20;77.20;;;;;;5055668;28;20485;-80
2021/03/23 04:25:15;;;;;;;35.72;22.70;;;7.20;77.30;;;;;;5073654;28;20027;-78
2021/03/23 04:27:40;;;;;;;36.28;22.48;;;7.20;77.40;;;;;;5055883;28;20032;-79
2021/03/23 04:30:08;;;;;;;44.78;25.63;;;7.20;77.80;;;;;;5055712;28;20017;-79
2021/03/23 04:32:34;;;;;;;37.88;22.95;;;7.20;77.70;;;;;;5073865;28;20039;-79
2021/03/23 04:35:01;;;;;;;38.47;23.33;;;7.20;77.70;;;;;;5073462;28;20028;-80
2021/03/23 04:37:26;;;;;;;36.53;23.52;;;7.10;77.90;;;;;;5055710;28;20456;-79
2021/03/23 04:39:52;;;;;;;38.55;24.13;;;7.10;77.90;;;;;;5073834;28;20103;-79
2021/03/23 04:42:18;;;;;;;40.63;24.10;;;7.10;78.10;;;;;;5073441;28;20326;-79
2021/03/23 04:44:43;;;;;;;37.78;23.15;;;7.10;78.20;;;;;;5055492;28;20023;-80
2021/03/23 04:47:09;;;;;;;37.20;24.08;;;7.10;78.40;;;;;;5073257;28;20017;-80
2021/03/23 04:49:34;;;;;;;38.83;24.88;;;7.00;78.40;;;;;;5058564;28;20021;-80
2021/03/23 04:52:00;;;;;;;41.38;25.38;;;7.00;78.60;;;;;;5073391;28;20024;-79
2021/03/23 04:54:27;;;;;;;39.63;25.85;;;7.00;78.80;;;;;;5073257;28;20541;-79
2021/03/23 04:56:53;;;;;;;38.88;23.80;;;7.00;78.60;;;;;;5055057;28;20468;-80
2021/03/23 04:59:19;;;;;;;36.85;26.10;;;7.00;78.70;;;;;;5054894;28;20020;-80
2021/03/23 05:01:45;;;;;;;41.47;25.85;;;7.00;78.70;;;;;;5072958;28;20412;-80
2021/03/23 05:04:15;;;;;;;43.30;27.10;;;7.00;78.90;;;;;;5072611;28;20020;-79
2021/03/23 05:06:40;;;;;;;43.65;25.42;;;7.00;79.10;;;;;;5072933;28;20096;-78
2021/03/23 05:09:06;;;;;;;36.33;25.60;;;7.00;79.20;;;;;;5054663;28;20079;-79
2021/03/23 05:11:32;;;;;;;37.33;23.65;;;6.90;79.10;;;;;;5055075;28;20443;-79
2021/03/23 05:14:00;;;;;;;39.47;24.55;;;7.00;79.20;;;;;;5054794;28;20028;-79
2021/03/23 05:16:27;;;;;;;40.38;24.38;;;6.90;79.20;;;;;;5054849;28;20027;-79
2021/03/23 05:18:53;;;;;;;43.08;25.60;;;7.00;79.40;;;;;;5055472;28;20136;-79
2021/03/23 05:21:20;;;;;;;39.08;25.55;;;7.00;79.40;;;;;;5054593;28;20103;-79
2021/03/23 05:23:45;;;;;;;43.13;26.27;;;6.90;79.40;;;;;;5072418;28;20137;-79
2021/03/23 05:26:11;;;;;;;42.47;24.15;;;6.90;79.60;;;;;;5054660;28;20020;-79
2021/03/23 05:28:36;;;;;;;45.15;26.85;;;6.90;79.50;;;;;;5054523;28;20019;-79
2021/03/23 05:31:04;;;;;;;42.83;27.33;;;6.90;79.80;;;;;;5054642;28;20012;-80
2021/03/23 05:33:30;;;;;;;46.75;25.77;;;6.90;79.90;;;;;;5072631;28;20380;-80
2021/03/23 05:35:57;;;;;;;41.13;25.63;;;6.90;79.80;;;;;;5072529;28;20013;-79
2021/03/23 05:38:25;;;;;;;46.30;26.55;;;6.90;80.00;;;;;;5054697;28;20077;-79
2021/03/23 05:41:01;;;;;;;41.08;25.27;;;6.90;80.10;;;;;;5054898;28;20036;-80
2021/03/23 05:43:30;;;;;;;45.03;26.60;;;6.90;80.10;;;;;;5056973;28;20061;-79
2021/03/23 05:46:04;;;;;;;45.40;26.40;;;6.90;80.10;;;;;;5062646;28;20144;-79
2021/03/23 05:48:35;;;;;;;47.50;27.67;;;6.90;80.80;;;;;;5074584;28;20074;-79
2021/03/23 05:51:03;;;;;;;40.90;26.65;;;6.90;80.20;;;;;;5055754;28;20088;-80
2021/03/23 05:53:46;;;;;;;47.03;27.65;;;6.90;80.20;;;;;;5074908;28;20028;-80
2021/03/23 05:56:15;;;;;;;39.38;26.73;;;6.80;80.40;;;;;;5056468;28;20020;-80
2021/03/23 05:58:50;;;;;;;48.80;27.85;;;6.80;80.60;;;;;;5059467;28;20028;-80
2021/03/23 06:01:24;;;;;;;42.97;26.02;;;6.80;80.80;;;;;;5082287;28;20051;-80
2021/03/23 06:03:59;;;;;;;44.72;26.55;;;6.80;81.00;;;;;;5077430;28;20024;-78
2021/03/23 06:06:39;;;;;;;43.90;24.75;;;6.70;81.10;;;;;;5074313;28;20020;-77
2021/03/23 06:09:07;;;;;;;50.00;27.40;;;6.70;81.20;;;;;;5091937;28;20043;-78
2021/03/23 06:11:38;;;;;;;42.90;26.58;;;6.70;81.40;;;;;;5074059;28;20044;-77
2021/03/23 06:14:32;;;;;;;48.25;25.23;;;6.70;81.50;;;;;;5073716;28;20460;-78
2021/03/23 06:17:20;;;;;;;45.13;25.45;;;6.60;81.70;;;;;;5092142;28;20016;-78
2021/03/23 06:20:10;;;;;;;46.42;25.67;;;6.60;81.90;;;;;;5073926;28;20019;-77
2021/03/23 06:23:00;;;;;;;36.47;24.05;;;6.60;82.10;;;;;;5074969;28;20036;-79
2021/03/23 06:25:46;;;;;;;39.17;22.73;;;6.70;82.20;;;;;;5091971;28;20020;-79
2021/03/23 06:28:23;;;;;;;41.55;24.42;;;6.70;82.10;;;;;;5073691;28;20028;-79
2021/03/23 06:30:55;;;;;;;46.35;26.88;;;6.80;82.20;;;;;;5092097;28;20452;-78
2021/03/23 06:33:24;;;;;;;44.65;26.50;;;6.90;82.00;;;;;;5073487;28;20403;-79
2021/03/23 06:35:58;;;;;;;47.08;27.20;;;6.90;81.80;;;;;;5092065;28;20294;-79
2021/03/23 06:38:31;;;;;;;66.07;31.73;;;7.10;81.50;;;;;;5073617;28;20016;-78
2021/03/23 06:41:24;;;;;;;55.97;30.48;;;7.10;81.00;;;;;;5092242;28;20020;-81
2021/03/23 06:44:00;;;;;;;62.67;33.15;;;7.20;80.90;;;;;;5096001;28;20016;-80
2021/03/23 06:46:28;;;;;;;53.03;29.77;;;7.30;80.40;;;;;;5095409;28;20364;-80
2021/03/23 06:49:40;;;;;;;47.70;27.92;;;7.20;80.30;;;;;;5078008;28;20367;-79
2021/03/23 06:52:20;;;;;;;47.95;25.55;;;7.30;80.40;;;;;;5095294;28;20193;-78
2021/03/23 06:55:04;;;;;;;37.97;25.00;;;7.40;80.10;;;;;;5096291;28;20020;-78
2021/03/23 06:57:34;;;;;;;41.95;24.38;;;7.30;79.90;;;;;;5077802;28;20028;-80
2021/03/23 07:00:01;;;;;;;47.20;25.13;;;7.40;79.90;;;;;;5075298;28;20053;-79
2021/03/23 07:02:39;;;;;;;40.50;25.77;;;7.40;80.00;;;;;;5076712;28;20024;-79
2021/03/23 07:05:33;;;;;;;45.33;25.60;;;7.50;79.90;;;;;;5095298;28;20020;-80
2021/03/23 07:08:15;;;;;;;45.28;27.90;;;7.50;79.90;;;;;;5077243;28;20394;-79
2021/03/23 07:10:57;;;;;;;43.33;26.23;;;7.60;79.70;;;;;;5095270;28;20464;-78
2021/03/23 07:13:25;;;;;;;42.25;24.42;;;7.70;79.50;;;;;;5094900;28;20115;-78
2021/03/23 07:16:03;;;;;;;44.95;25.23;;;7.80;79.20;;;;;;5095108;28;20020;-78
2021/03/23 07:18:30;;;;;;;41.97;25.48;;;7.90;78.90;;;;;;5094889;28;20483;-77
2021/03/23 07:21:04;;;;;;;42.67;23.85;;;7.90;78.70;;;;;;5094990;28;20093;-77
2021/03/23 07:23:39;;;;;;;51.55;30.15;;;7.90;78.80;;;;;;5095433;28;20016;-81
2021/03/23 07:26:19;;;;;;;57.47;30.25;;;7.90;79.30;;;;;;5077253;28;20020;-81
2021/03/23 07:28:45;;;;;;;63.33;34.75;;;7.90;80.10;;;;;;5077282;28;20016;-81
2021/03/23 07:31:34;;;;;;;67.40;34.85;;;7.90;81.50;;;;;;5076932;28;20024;-81
2021/03/23 07:34:12;;;;;;;59.13;28.58;;;8.00;81.30;;;;;;5095327;28;20028;-82
2021/03/23 07:36:50;;;;;;;57.67;29.65;;;8.10;82.40;;;;;;5095717;28;20020;-81
2021/03/23 07:39:25;;;;;;;49.40;25.35;;;8.30;82.00;;;;;;5095961;28;20058;-81
2021/03/23 07:41:57;;;;;;;49.63;27.75;;;8.60;81.40;;;;;;5097210;28;20008;-81
2021/03/23 07:44:44;;;;;;;46.42;23.10;;;8.90;80.80;;;;;;5061051;28;20051;-82
2021/03/23 07:47:40;;;;;;;40.35;22.67;;;9.20;80.30;;;;;;5058709;28;20154;-80
2021/03/23 07:50:13;;;;;;;52.28;25.42;;;9.60;81.50;;;;;;5067360;28;20039;-81
2021/03/23 07:52:50;;;;;;;49.15;27.88;;;9.80;77.90;;;;;;5075329;28;20021;-80
2021/03/23 07:55:23;;;;;;;47.95;26.08;;;9.90;78.00;;;;;;5092859;28;20020;-80
2021/03/23 07:58:19;;;;;;;47.05;25.02;;;10.00;78.30;;;;;;5076873;28;20023;-80
2021/03/23 08:01:02;;;;;;;51.22;28.13;;;10.10;76.50;;;;;;5093771;28;20371;-80
2021/03/23 08:03:50;;;;;;;55.22;30.10;;;10.20;76.50;;;;;;5089987;28;20020;-81
2021/03/23 08:06:28;;;;;;;52.05;29.73;;;10.20;76.00;;;;;;5093323;28;20020;-81
2021/03/23 08:09:10;;;;;;;48.78;28.27;;;10.40;75.60;;;;;;5072775;28;20068;-80
2021/03/23 08:11:39;;;;;;;49.45;27.80;;;10.60;74.90;;;;;;5052687;28;20111;-81
2021/03/23 08:14:37;;;;;;;51.15;29.38;;;10.50;73.40;;;;;;5054335;28;20029;-80
2021/03/23 08:17:19;;;;;;;55.33;32.58;;;10.30;74.40;;;;;;5052815;28;20052;-81
2021/03/23 08:20:02;;;;;;;55.97;28.83;;;10.30;74.90;;;;;;5052680;28;20027;-80
2021/03/23 08:22:48;;;;;;;65.55;34.85;;;10.20;74.10;;;;;;5053673;28;20441;-79
2021/03/23 08:25:18;;;;;;;54.67;32.00;;;9.90;74.70;;;;;;5052445;28;20048;-80
2021/03/23 08:28:38;;;;;;;66.10;38.03;;;9.80;76.20;;;;;;5053886;28;20476;-79
2021/03/23 08:31:37;;;;;;;78.05;44.63;;;9.90;76.70;;;;;;4955669;28;20023;-77
2021/03/23 08:34:27;;;;;;;76.25;41.80;;;9.90;74.60;;;;;;5052298;28;20017;-76
2021/03/23 08:37:26;;;;;;;75.20;41.63;;;9.50;75.80;;;;;;5052281;28;20025;-77
2021/03/23 08:40:03;;;;;;;68.03;37.33;;;9.20;77.30;;;;;;5051882;28;20024;-78
2021/03/23 08:42:30;;;;;;;63.90;36.45;;;8.90;78.40;;;;;;5052337;28;20408;-78
2021/03/23 08:45:00;;;;;;;68.07;40.90;;;8.60;79.70;;;;;;5071602;28;20017;-78
2021/03/23 08:47:29;;;;;;;74.70;39.08;;;8.40;81.40;;;;;;5073228;28;20024;-77
2021/03/23 08:49:58;;;;;;;72.28;37.45;;;8.20;83.00;;;;;;5072147;28;20111;-75
2021/03/23 08:52:27;;;;;;;72.82;40.15;;;8.00;84.00;;;;;;5071640;28;20349;-77
2021/03/23 08:54:54;;;;;;;77.43;40.65;;;8.00;85.10;;;;;;5072701;28;20036;-79
2021/03/23 08:57:20;;;;;;;82.90;45.10;;;7.90;85.30;;;;;;5072441;28;20095;-79
2021/03/23 08:59:48;;;;;;;82.45;43.42;;;7.90;85.30;;;;;;5072061;28;20529;-79
2021/03/23 09:02:14;;;;;;;83.07;44.17;;;7.90;85.60;;;;;;5072140;28;20016;-81
2021/03/23 09:04:42;;;;;;;90.63;44.65;;;7.90;85.80;;;;;;5073232;28;20027;-78
2021/03/23 09:07:20;;;;;;;80.80;40.67;;;7.90;86.20;;;;;;5074368;28;20108;-79
2021/03/23 09:09:48;;;;;;;83.70;42.63;;;7.90;86.40;;;;;;5089735;28;20111;-78
2021/03/23 09:12:33;;;;;;;85.05;42.65;;;7.80;86.90;;;;;;5075029;28;20012;-78
2021/03/23 09:15:24;;;;;;;81.15;40.97;;;7.80;87.40;;;;;;5075477;28;20035;-77
2021/03/23 09:18:13;;;;;;;79.60;39.38;;;7.70;87.60;;;;;;5062616;28;20130;-78
2021/03/23 09:20:39;;;;;;;85.30;41.50;;;7.70;88.20;;;;;;5070186;28;20020;-77
2021/03/23 09:23:17;;;;;;;76.20;40.30;;;7.70;88.50;;;;;;5073769;28;20042;-78
2021/03/23 09:25:54;;;;;;;87.47;44.75;;;7.70;88.70;;;;;;5071517;28;20065;-77
2021/03/23 09:28:29;;;;;;;90.20;45.00;;;7.70;89.00;;;;;;5069801;28;20031;-78
2021/03/23 09:31:07;;;;;;;86.93;41.90;;;7.70;89.30;;;;;;5075463;28;20368;-79
2021/03/23 09:33:40;;;;;;;87.72;41.88;;;7.70;89.10;;;;;;5093384;28;20020;-79
2021/03/23 09:38:41;;;;;;;86.38;39.78;;;7.80;88.90;;;;;;5092965;28;20345;-78
2021/03/23 09:41:23;;;;;;;90.68;40.50;;;7.80;89.70;;;;;;5075590;28;20024;-78
2021/03/23 09:44:05;;;;;;;84.68;42.17;;;7.80;88.60;;;;;;5064717;28;20453;-78
2021/03/23 09:46:45;;;;;;;93.32;43.75;;;7.90;89.00;;;;;;5055628;28;20025;-77
2021/03/23 09:49:25;;;;;;;94.70;46.38;;;7.90;89.10;;;;;;5071458;28;20027;-78
2021/03/23 09:51:55;;;;;;;74.90;37.30;;;7.90;88.80;;;;;;5054879;28;20064;-78
2021/03/23 09:54:28;;;;;;;79.50;39.50;;;7.90;88.30;;;;;;5072830;28;20026;-78
2021/03/23 09:56:59;;;;;;;74.88;39.17;;;7.90;88.70;;;;;;5072522;28;20096;-77
2021/03/23 09:59:29;;;;;;;74.50;34.80;;;8.00;88.70;;;;;;5055576;28;20016;-79
2021/03/23 10:02:00;;;;;;;76.57;41.08;;;8.00;88.50;;;;;;5054285;28;20043;-78
2021/03/23 10:04:35;;;;;;;71.57;36.92;;;8.00;88.00;;;;;;5055830;28;20047;-78
2021/03/23 10:07:02;;;;;;;68.68;36.40;;;8.00;88.10;;;;;;5054297;28;20381;-79
2021/03/23 10:09:31;;;;;;;76.38;38.22;;;8.00;88.10;;;;;;5054472;28;20040;-78
2021/03/23 10:11:57;;;;;;;73.38;36.33;;;8.00;88.10;;;;;;5054522;28;20524;-78
2021/03/23 10:14:29;;;;;;;73.63;37.22;;;8.00;88.40;;;;;;5054195;28;20128;-77
2021/03/23 10:17:24;;;;;;;72.60;39.00;;;8.00;88.50;;;;;;5061263;28;20051;-79
2021/03/23 10:19:59;;;;;;;61.83;32.47;;;8.10;88.50;;;;;;5061640;28;20115;-78
2021/03/23 10:22:37;;;;;;;69.38;32.47;;;8.20;88.30;;;;;;5063355;28;20405;-80
2021/03/23 10:25:06;;;;;;;95.63;53.60;;;8.20;88.10;;;;;;5061954;28;20020;-78
2021/03/23 10:27:35;;;;;;;67.10;36.80;;;8.30;88.00;;;;;;5062038;28;20047;-77
2021/03/23 10:30:14;;;;;;;64.32;33.13;;;8.40;87.10;;;;;;5079369;28;20074;-79
2021/03/23 10:32:42;;;;;;;61.78;32.00;;;8.40;86.80;;;;;;5078304;28;20019;-79
2021/03/23 10:35:11;;;;;;;65.13;33.38;;;8.40;86.90;;;;;;5060560;28;20489;-77
2021/03/23 10:37:37;;;;;;;65.03;36.10;;;8.40;86.80;;;;;;5060852;28;20016;-79
2021/03/23 10:40:24;;;;;;;72.50;37.70;;;8.40;86.70;;;;;;5063786;28;20020;-80
2021/03/23 10:42:55;;;;;;;74.50;38.40;;;8.40;86.70;;;;;;5063384;28;20036;-80
2021/03/23 10:45:26;;;;;;;68.32;37.05;;;8.50;86.60;;;;;;5080881;28;20156;-79
2021/03/23 10:48:26;;;;;;;68.60;35.00;;;8.50;86.60;;;;;;5080362;28;20107;-80
2021/03/23 10:51:25;;;;;;;71.82;33.67;;;8.50;86.30;;;;;;5038179;28;20028;-78
2021/03/23 10:54:11;;;;;;;69.75;35.83;;;8.50;86.30;;;;;;5098387;28;20417;-83
2021/03/23 10:56:46;;;;;;;76.13;39.28;;;8.50;85.90;;;;;;5073256;28;20355;-79
2021/03/23 10:59:14;;;;;;;71.30;40.03;;;8.50;86.10;;;;;;5080530;28;20020;-81
2021/03/23 11:02:05;;;;;;;68.85;37.40;;;8.60;86.30;;;;;;5080459;28;20028;-77
2021/03/23 11:04:31;;;;;;;;;;;8.60;85.80;;;;;;5080456;28;20027;-77
2021/03/23 11:07:16;;;;;;;76.57;38.53;;;8.60;85.20;;;;;;5080364;28;19908;-80
2021/03/23 11:09:42;;;;;;;69.70;36.28;;;8.60;85.50;;;;;;5080409;28;20418;-80
2021/03/23 11:12:08;;;;;;;66.38;34.60;;;8.60;86.10;;;;;;5098564;28;20466;-80
2021/03/23 11:14:33;;;;;;;75.10;38.83;;;8.70;85.50;;;;;;5080132;28;20032;-80
2021/03/23 11:17:00;;;;;;;75.60;39.85;;;8.70;85.30;;;;;;5095636;28;20062;-80
2021/03/23 11:19:31;;;;;;;73.68;39.17;;;8.80;85.40;;;;;;5078348;28;20039;-79
2021/03/23 11:22:03;;;;;;;67.38;36.13;;;8.80;85.20;;;;;;5077337;28;20073;-79
2021/03/23 11:24:29;;;;;;;54.85;28.88;;;8.90;85.40;;;;;;5080302;28;20405;-81
2021/03/23 11:26:55;;;;;;;64.82;33.88;;;9.00;85.10;;;;;;5078567;28;20119;-80
2021/03/23 11:29:21;;;;;;;74.68;37.17;;;9.10;84.50;;;;;;5077296;28;20093;-75
2021/03/23 11:31:47;;;;;;;60.20;33.83;;;9.20;83.50;;;;;;5077034;28;20054;-78
2021/03/23 11:34:14;;;;;;;66.88;37.65;;;9.20;83.60;;;;;;5076865;28;20479;-77
2021/03/23 11:36:40;;;;;;;71.15;37.25;;;9.10;83.40;;;;;;5076939;28;20016;-77
2021/03/23 11:39:10;;;;;;;70.78;38.63;;;9.10;83.80;;;;;;5077104;28;20012;-79
2021/03/23 11:41:40;;;;;;;78.63;40.15;;;9.10;83.10;;;;;;5075009;28;20111;-80
2021/03/23 11:44:21;;;;;;;71.93;39.95;;;9.20;83.20;;;;;;5062440;28;20077;-80
2021/03/23 11:47:09;;;;;;;71.30;38.45;;;9.20;82.90;;;;;;5057559;28;20021;-79
2021/03/23 11:49:44;;;;;;;60.67;32.22;;;9.20;82.50;;;;;;5056323;28;20028;-80
2021/03/23 11:52:10;;;;;;;70.60;39.17;;;9.20;83.80;;;;;;5074291;28;20025;-80
2021/03/23 11:54:36;;;;;;;68.47;40.30;;;9.20;83.00;;;;;;5055814;28;20029;-80
2021/03/23 11:57:02;;;;;;;64.47;37.80;;;9.20;82.80;;;;;;5056307;28;20047;-80
2021/03/23 11:59:28;;;;;;;68.18;39.22;;;9.20;82.20;;;;;;5056425;28;20024;-80
2021/03/23 12:01:53;;;;;;;71.78;41.25;;;9.20;82.20;;;;;;5074264;28;20024;-81
2021/03/23 12:04:19;;;;;;;76.57;42.00;;;9.30;82.20;;;;;;5056350;28;20115;-78
2021/03/23 12:07:04;;;;;;;70.07;39.03;;;9.40;81.90;;;;;;5057278;28;20052;-79
2021/03/23 12:09:47;;;;;;;71.07;40.15;;;9.40;82.10;;;;;;5056240;28;20299;-78
2021/03/23 12:12:51;;;;;;;73.70;40.70;;;9.40;81.30;;;;;;5057731;28;20016;-79
2021/03/23 12:15:45;;;;;;;73.75;39.38;;;9.40;81.50;;;;;;5036951;28;20090;-80
2021/03/23 12:18:15;;;;;;;77.72;43.22;;;9.50;81.90;;;;;;5073232;28;20028;-81
2021/03/23 12:20:43;;;;;;;70.10;37.85;;;9.50;80.50;;;;;;5055674;28;20020;-79
2021/03/23 12:23:08;;;;;;;72.78;40.75;;;9.60;80.70;;;;;;5073967;28;20024;-80
2021/03/23 12:25:35;;;;;;;71.75;39.50;;;9.60;80.00;;;;;;5074102;28;20073;-81
2021/03/23 12:28:01;;;;;;;83.38;40.90;;;9.70;80.40;;;;;;5073926;28;20151;-80
2021/03/23 12:30:28;;;;;;;66.68;36.58;;;9.70;80.50;;;;;;5059598;28;20048;-80
2021/03/23 12:32:55;;;;;;;68.03;35.53;;;9.70;80.50;;;;;;5073935;28;20066;-81
2021/03/23 12:35:24;;;;;;;66.53;38.70;;;9.70;81.20;;;;;;5075196;28;20023;-81
2021/03/23 12:37:52;;;;;;;64.93;37.08;;;9.70;80.80;;;;;;5075462;28;20414;-80
2021/03/23 12:40:20;;;;;;;64.28;35.53;;;9.70;81.90;;;;;;5092732;28;20061;-81
2021/03/23 12:42:46;;;;;;;69.80;39.53;;;9.80;80.80;;;;;;5073832;28;20044;-81
2021/03/23 12:45:21;;;;;;;59.05;31.85;;;9.80;80.00;;;;;;5092055;28;20020;-80
2021/03/23 12:47:46;;;;;;;58.17;32.40;;;9.90;80.80;;;;;;5074710;28;20016;-81
2021/03/23 12:50:13;;;;;;;65.65;35.80;;;9.90;81.10;;;;;;5075200;28;20027;-80
2021/03/23 12:52:39;;;;;;;66.05;37.00;;;9.90;80.90;;;;;;5075207;28;20607;-80
2021/03/23 12:55:05;;;;;;;63.17;33.78;;;9.80;81.40;;;;;;5075452;28;20119;-80
2021/03/23 12:57:39;;;;;;;62.03;34.60;;;9.80;81.60;;;;;;5093046;28;20027;-78
2021/03/23 13:00:22;;;;;;;67.60;36.67;;;9.90;81.80;;;;;;5075469;28;20440;-79
2021/03/23 13:02:48;;;;;;;74.60;40.33;;;10.00;81.10;;;;;;5076258;28;20016;-78
2021/03/23 13:05:14;;;;;;;68.03;38.83;;;10.10;80.90;;;;;;5093863;28;20027;-77